This is the latest recevied weather packets stored in our database for station/object DL1AIE-13. If no packets are shown the sender has not sent any weather packets the latest 10 day(s).
| Time | Temp. | Humidity | Pressure | Rain* | Wind** | Luminosity | Snow |
|---|---|---|---|---|---|---|---|
| 1777756036 | 16.11° C | 60% | 1016.1 hPa | 0 mm | - | - | - |
| 1777755453 | 16.67° C | 58% | 1016.1 hPa | 0 mm | - | - | - |
| 1777754849 | 16.11° C | 62% | 1016.2 hPa | 0 mm | - | - | - |
| 1777754246 | 15° C | 70% | 1016.3 hPa | 0 mm | - | - | - |
| 1777753642 | 16.11° C | 66% | 1016.3 hPa | 0 mm | - | - | - |
| 1777753039 | 16.67° C | 63% | 1016.3 hPa | 0 mm | - | - | - |
| 1777752456 | 17.78° C | 60% | 1016.3 hPa | 0 mm | - | - | - |
| 1777751852 | 17.22° C | 62% | 1016.2 hPa | 0 mm | - | - | - |
| 1777751249 | 18.33° C | 58% | 1016.3 hPa | 0 mm | - | - | - |
| 1777750645 | 19.44° C | 54% | 1016.3 hPa | 0 mm | - | - | - |
| 1777750041 | 20° C | 53% | 1016.3 hPa | 0 mm | - | - | - |
| 1777749438 | 20° C | 53% | 1016.2 hPa | 0 mm | - | - | - |
| 1777748858 | 20° C | 52% | 1016.2 hPa | 0 mm | - | - | - |
| 1777748256 | 19.44° C | 55% | 1016.1 hPa | 0 mm | - | - | - |
| 1777747647 | 19.44° C | 55% | 1016 hPa | 0 mm | - | - | - |
| 1777747043 | 20° C | 52% | 1016.1 hPa | 0 mm | - | - | - |
| 1777746446 | 21.11° C | 48% | 1016.1 hPa | 0 mm | - | - | - |
| 1777745858 | 21.67° C | 49% | 1016.1 hPa | 0 mm | - | - | - |
| 1777745252 | 22.78° C | 45% | 1016 hPa | 0 mm | - | - | - |
| 1777744649 | 23.33° C | 41% | 1016 hPa | 0 mm | - | - | - |
| 1777744045 | 24.44° C | 38% | 1016.1 hPa | 0 mm | - | - | - |
| 1777743441 | 25° C | 38% | 1016.1 hPa | 0 mm | - | - | - |
| 1777742838 | 25° C | 38% | 1016.2 hPa | 0 mm | - | - | - |
| 1777742254 | 25.56° C | 33% | 1016.3 hPa | 0 mm | - | - | - |
| 1777741650 | 26.11° C | 34% | 1016.2 hPa | 0 mm | - | - | - |
* Rain latest hour (hover to see other rain measurements)
** Current wind speed in m/s (hover to see current wind gust speed)